Time;durP1;ratioP1;P1;durP2;ratioP2;P2;SDS_P1;SDS_P2;PMS_P1;PMS_P2;Temp;Humidity;BMP_temperature;BMP_pressure;BME280_temperature;BME280_humidity;BME280_pressure;Samples;Min_cycle;Max_cycle;Signal;HPM_P1;HPM_P2
2021/08/11 00:00:24;;;;;;;23.85;15.35;;;13.30;99.90;;;;;;6189837;23;20008;-83
2021/08/11 00:02:50;;;;;;;21.35;15.25;;;13.30;99.90;;;;;;6189664;23;20043;-82
2021/08/11 00:05:16;;;;;;;24.95;16.10;;;13.40;99.90;;;;;;6190904;23;20016;-82
2021/08/11 00:07:42;;;;;;;21.55;13.52;;;13.40;99.90;;;;;;6212036;23;20507;-82
2021/08/11 00:10:09;;;;;;;18.10;12.27;;;13.40;99.90;;;;;;6191267;23;20015;-82
2021/08/11 00:12:35;;;;;;;16.63;12.48;;;13.30;99.90;;;;;;6244848;23;20040;-83
2021/08/11 00:15:10;;;;;;;17.08;13.18;;;13.30;99.90;;;;;;6193381;23;20012;-83
2021/08/11 00:17:36;;;;;;;22.23;13.10;;;13.30;99.90;;;;;;6238670;23;20420;-82
2021/08/11 00:20:04;;;;;;;24.48;14.02;;;13.20;99.90;;;;;;6212853;23;20019;-82
2021/08/11 00:22:29;;;;;;;19.83;13.70;;;13.20;99.90;;;;;;6186218;23;20098;-82
2021/08/11 00:24:56;;;;;;;21.17;13.95;;;13.20;99.90;;;;;;6162298;23;20015;-82
2021/08/11 00:27:22;;;;;;;21.63;14.70;;;13.10;99.90;;;;;;6238975;23;20016;-83
2021/08/11 00:29:48;;;;;;;21.45;14.93;;;13.10;99.90;;;;;;6164387;23;20459;-83
2021/08/11 00:32:13;;;;;;;20.58;13.50;;;13.10;99.90;;;;;;6161452;23;20095;-82
2021/08/11 00:34:41;;;;;;;22.27;14.18;;;13.10;99.90;;;;;;6186768;23;20015;-82
2021/08/11 00:37:07;;;;;;;22.42;15.73;;;13.10;99.90;;;;;;6210951;23;20012;-82
2021/08/11 00:39:35;;;;;;;21.85;15.43;;;13.10;99.90;;;;;;6211849;23;20008;-82
2021/08/11 00:42:03;;;;;;;21.08;15.43;;;13.10;99.90;;;;;;6189326;23;20008;-82
2021/08/11 00:44:28;;;;;;;23.45;15.50;;;13.10;99.90;;;;;;6162323;23;20015;-83
2021/08/11 00:46:54;;;;;;;24.95;16.42;;;13.10;99.90;;;;;;6212532;23;20079;-83
2021/08/11 00:49:20;;;;;;;28.50;16.77;;;13.20;99.90;;;;;;6161951;23;20027;-81
2021/08/11 00:51:47;;;;;;;32.50;17.88;;;13.10;99.90;;;;;;6140176;23;20411;-81
2021/08/11 00:54:13;;;;;;;33.53;18.90;;;13.20;99.90;;;;;;6191219;23;20015;-81
2021/08/11 00:56:43;;;;;;;34.63;18.65;;;13.10;99.90;;;;;;6243280;23;20558;-81
2021/08/11 00:59:11;;;;;;;33.15;18.90;;;13.20;99.90;;;;;;6253338;23;20023;-81
2021/08/11 01:01:39;;;;;;;30.88;17.95;;;13.10;99.90;;;;;;6189205;23;20070;-81
2021/08/11 01:04:07;;;;;;;27.42;17.10;;;13.10;99.90;;;;;;6213831;23;20016;-81
2021/08/11 01:06:37;;;;;;;23.02;17.00;;;13.10;99.90;;;;;;6214408;23;20145;-81
2021/08/11 01:09:02;;;;;;;23.02;16.98;;;13.10;99.90;;;;;;6190277;23;20009;-81
2021/08/11 01:11:30;;;;;;;23.92;15.45;;;13.10;99.90;;;;;;6249642;23;20012;-81
2021/08/11 01:13:58;;;;;;;18.88;15.25;;;13.10;99.90;;;;;;6215934;23;20265;-81
2021/08/11 01:16:23;;;;;;;20.13;13.98;;;13.10;99.90;;;;;;6216646;23;20088;-81
2021/08/11 01:18:50;;;;;;;18.10;14.30;;;13.00;99.90;;;;;;6189347;23;20074;-81
2021/08/11 01:21:23;;;;;;;28.20;16.30;;;13.00;99.90;;;;;;6141118;23;20012;-81
2021/08/11 01:24:00;;;;;;;22.90;15.00;;;12.90;99.90;;;;;;6245096;23;20015;-81
2021/08/11 01:26:51;;;;;;;21.45;15.55;;;13.00;99.90;;;;;;6215808;23;20596;-81
2021/08/11 01:29:47;;;;;;;25.33;16.65;;;12.90;99.90;;;;;;6214202;23;20020;-81
2021/08/11 01:32:28;;;;;;;23.17;16.98;;;12.90;99.90;;;;;;6187869;23;20004;-81
2021/08/11 01:34:55;;;;;;;29.02;18.45;;;12.90;99.90;;;;;;6247249;23;20095;-81
2021/08/11 01:37:27;;;;;;;29.25;16.42;;;12.90;99.90;;;;;;6188266;23;20008;-81
2021/08/11 01:39:58;;;;;;;22.85;17.35;;;13.00;99.90;;;;;;6231714;23;20043;-81
2021/08/11 01:42:33;;;;;;;26.20;15.45;;;12.90;99.90;;;;;;6217249;23;20047;-81
2021/08/11 01:45:16;;;;;;;27.92;15.40;;;12.90;99.90;;;;;;6208788;23;20447;-81
2021/08/11 01:47:47;;;;;;;22.77;14.80;;;12.90;99.90;;;;;;6237134;23;20067;-81
2021/08/11 01:50:16;;;;;;;20.73;14.82;;;12.90;99.90;;;;;;6213065;23;20008;-81
2021/08/11 01:52:45;;;;;;;18.35;14.55;;;12.90;99.90;;;;;;6184923;23;20012;-81
2021/08/11 01:55:12;;;;;;;24.08;15.57;;;12.90;99.90;;;;;;6186159;23;20015;-81
2021/08/11 01:57:50;;;;;;;18.98;12.55;;;12.90;99.90;;;;;;6212058;23;20008;-81
2021/08/11 02:00:17;;;;;;;12.57;10.50;;;12.90;99.90;;;;;;6212544;23;20023;-81
2021/08/11 02:02:45;;;;;;;10.00;8.95;;;12.80;99.90;;;;;;6191861;23;20077;-81
2021/08/11 02:05:13;;;;;;;16.83;11.18;;;12.80;99.90;;;;;;6242134;23;20012;-81
2021/08/11 02:07:40;;;;;;;17.02;11.00;;;12.70;99.90;;;;;;6187384;23;20321;-81
2021/08/11 02:10:08;;;;;;;17.30;11.35;;;12.70;99.90;;;;;;6213416;23;20008;-81
2021/08/11 02:12:35;;;;;;;20.95;13.48;;;12.60;99.90;;;;;;6191176;23;20027;-81
2021/08/11 02:15:01;;;;;;;21.58;14.57;;;12.60;99.90;;;;;;6193944;23;20055;-81
2021/08/11 02:17:26;;;;;;;23.70;14.23;;;12.50;99.90;;;;;;6221734;23;20008;-81
2021/08/11 02:19:53;;;;;;;19.55;13.07;;;12.50;99.90;;;;;;6196500;23;20520;-81
2021/08/11 02:22:19;;;;;;;25.23;13.35;;;12.50;99.90;;;;;;6193035;23;20032;-80
2021/08/11 02:24:45;;;;;;;18.55;11.82;;;12.40;99.90;;;;;;6171048;23;20352;-80
2021/08/11 02:27:17;;;;;;;15.95;12.00;;;12.40;99.90;;;;;;6247176;23;20023;-81
2021/08/11 02:30:07;;;;;;;17.98;10.80;;;12.40;99.90;;;;;;6220777;23;20016;-81
2021/08/11 02:32:36;;;;;;;20.10;11.70;;;12.30;99.90;;;;;;6222455;23;20252;-81
2021/08/11 02:35:12;;;;;;;17.50;10.95;;;12.30;99.90;;;;;;6199116;23;20020;-80
2021/08/11 02:37:54;;;;;;;21.67;12.30;;;12.30;99.90;;;;;;6224996;23;20012;-80
2021/08/11 02:40:45;;;;;;;17.02;10.38;;;12.20;99.90;;;;;;6227266;23;20016;-81
2021/08/11 02:43:32;;;;;;;16.38;11.05;;;12.20;99.90;;;;;;6223244;23;20426;-81
2021/08/11 02:46:04;;;;;;;14.50;10.52;;;12.20;99.90;;;;;;6196663;23;20031;-81
2021/08/11 02:48:30;;;;;;;;;;;12.10;99.90;;;;;;6202908;23;20070;-81
2021/08/11 02:50:58;;;;;;;18.35;11.50;;;12.10;99.90;;;;;;6175024;23;19912;-81
2021/08/11 02:53:26;;;;;;;17.00;12.85;;;12.00;99.90;;;;;;6227775;23;20059;-81
2021/08/11 02:55:52;;;;;;;21.67;15.02;;;12.00;99.90;;;;;;6202519;23;20019;-81
2021/08/11 02:58:19;;;;;;;21.80;13.88;;;12.00;99.90;;;;;;6229164;23;20020;-81
2021/08/11 03:00:50;;;;;;;27.35;16.48;;;12.00;99.90;;;;;;6178603;23;20158;-81
2021/08/11 03:03:18;;;;;;;23.38;15.65;;;12.00;99.90;;;;;;6202476;23;20190;-81
2021/08/11 03:05:44;;;;;;;27.63;16.08;;;12.00;99.90;;;;;;6205207;23;20012;-81
2021/08/11 03:08:11;;;;;;;27.48;16.13;;;12.00;99.90;;;;;;6226833;23;20036;-81
2021/08/11 03:10:39;;;;;;;36.78;20.77;;;12.00;99.90;;;;;;6204174;23;20020;-81
2021/08/11 03:13:08;;;;;;;34.10;20.45;;;12.10;99.90;;;;;;6181599;23;20349;-81
2021/08/11 03:15:36;;;;;;;26.55;17.23;;;12.00;99.90;;;;;;6182114;23;20012;-81
2021/08/11 03:18:02;;;;;;;23.80;15.43;;;12.10;99.90;;;;;;6231323;23;20012;-81
2021/08/11 03:20:31;;;;;;;24.30;15.73;;;12.10;99.90;;;;;;6179287;23;20012;-81
2021/08/11 03:22:57;;;;;;;24.15;15.35;;;12.00;99.90;;;;;;6180512;23;20059;-80
2021/08/11 03:25:23;;;;;;;29.17;16.08;;;12.00;99.90;;;;;;6153391;23;20012;-81
2021/08/11 03:27:49;;;;;;;24.60;15.77;;;12.00;99.90;;;;;;6191059;23;20019;-81
2021/08/11 03:30:15;;;;;;;26.00;15.30;;;12.00;99.90;;;;;;6212802;23;20008;-80
2021/08/11 03:32:41;;;;;;;31.95;17.25;;;12.00;99.90;;;;;;6187933;23;20015;-79
2021/08/11 03:35:09;;;;;;;30.10;16.90;;;12.00;99.90;;;;;;6188810;23;20008;-80
2021/08/11 03:37:34;;;;;;;33.53;17.98;;;12.00;99.90;;;;;;6212940;23;20383;-81
2021/08/11 03:40:00;;;;;;;27.77;17.38;;;12.00;99.90;;;;;;6244995;23;20012;-80
2021/08/11 03:42:26;;;;;;;28.52;18.45;;;12.00;99.90;;;;;;6192265;23;20012;-81
2021/08/11 03:44:53;;;;;;;33.78;19.05;;;12.00;99.90;;;;;;6193012;23;20123;-81
2021/08/11 03:47:18;;;;;;;32.78;19.38;;;12.00;99.90;;;;;;6168000;23;20016;-81
2021/08/11 03:49:46;;;;;;;27.33;17.92;;;12.00;99.90;;;;;;6193199;23;20424;-80
2021/08/11 03:52:12;;;;;;;28.85;19.63;;;12.00;99.90;;;;;;6166454;23;20043;-81
2021/08/11 03:54:38;;;;;;;35.28;20.20;;;11.90;99.90;;;;;;6216422;23;20027;-81
2021/08/11 03:57:04;;;;;;;31.35;19.83;;;11.90;99.90;;;;;;6168838;23;20016;-81
2021/08/11 03:59:30;;;;;;;36.28;21.30;;;11.90;99.90;;;;;;6193929;23;20068;-80
2021/08/11 04:01:56;;;;;;;46.13;23.95;;;11.90;99.90;;;;;;6190974;23;20016;-80
2021/08/11 04:04:22;;;;;;;42.88;24.33;;;11.90;99.90;;;;;;6218505;23;20012;-81
2021/08/11 04:06:48;;;;;;;40.45;23.83;;;11.90;99.90;;;;;;6185396;23;20024;-81
2021/08/11 04:09:13;;;;;;;40.20;23.25;;;11.90;99.90;;;;;;6187343;23;20019;-80
2021/08/11 04:11:39;;;;;;;29.33;19.17;;;12.00;99.90;;;;;;6186712;23;20066;-81
2021/08/11 04:14:05;;;;;;;32.58;20.00;;;12.00;99.90;;;;;;6165502;23;20015;-81
2021/08/11 04:16:31;;;;;;;32.53;19.77;;;11.90;99.90;;;;;;6161358;23;20239;-81
2021/08/11 04:18:57;;;;;;;39.53;22.15;;;11.90;99.90;;;;;;6188511;23;20075;-81
2021/08/11 04:21:23;;;;;;;36.08;22.70;;;11.90;99.90;;;;;;6186470;23;20023;-81
2021/08/11 04:23:49;;;;;;;34.55;21.35;;;12.00;99.90;;;;;;6162954;23;20091;-81
2021/08/11 04:26:14;;;;;;;35.50;21.50;;;11.90;99.90;;;;;;6164852;23;20630;-81
2021/08/11 04:28:40;;;;;;;34.67;21.50;;;11.90;99.90;;;;;;6163418;23;20019;-80
2021/08/11 04:31:06;;;;;;;35.65;21.42;;;11.90;99.90;;;;;;6211952;23;20214;-82
2021/08/11 04:33:32;;;;;;;38.50;22.42;;;12.00;99.90;;;;;;6236940;23;20349;-81
2021/08/11 04:36:02;;;;;;;41.97;24.35;;;12.00;99.90;;;;;;6250230;23;20008;-80
2021/08/11 04:38:28;;;;;;;44.30;25.15;;;11.90;99.90;;;;;;6161984;23;20042;-80
2021/08/11 04:40:54;;;;;;;39.33;24.70;;;12.00;99.90;;;;;;6188000;23;20452;-80
2021/08/11 04:43:21;;;;;;;36.95;23.30;;;12.00;99.90;;;;;;6213562;23;20451;-80
2021/08/11 04:45:47;;;;;;;37.40;22.65;;;12.10;99.90;;;;;;6212400;23;20030;-80
2021/08/11 04:48:13;;;;;;;39.13;22.52;;;12.10;99.90;;;;;;6210023;23;20036;-80
2021/08/11 04:50:39;;;;;;;38.10;21.73;;;12.10;99.90;;;;;;6161006;23;20047;-80
2021/08/11 04:53:05;;;;;;;37.78;21.88;;;12.20;99.90;;;;;;6160823;23;20012;-81
2021/08/11 04:55:31;;;;;;;37.47;21.88;;;12.20;99.90;;;;;;6211150;23;20008;-81
2021/08/11 04:57:58;;;;;;;36.03;22.15;;;12.30;99.90;;;;;;6192537;23;20047;-81
2021/08/11 05:00:23;;;;;;;34.15;21.42;;;12.20;99.90;;;;;;6216000;23;20039;-80
2021/08/11 05:02:49;;;;;;;35.80;22.00;;;12.30;99.90;;;;;;6211881;23;20019;-81
2021/08/11 05:05:15;;;;;;;39.63;22.33;;;12.40;99.90;;;;;;6240034;23;20045;-80
2021/08/11 05:07:41;;;;;;;36.53;22.50;;;12.40;99.90;;;;;;6161903;23;20445;-80
2021/08/11 05:10:08;;;;;;;32.55;21.63;;;12.50;99.90;;;;;;6186673;23;20086;-80
2021/08/11 05:12:34;;;;;;;40.20;21.42;;;12.50;99.90;;;;;;6188380;23;20302;-81
2021/08/11 05:15:05;;;;;;;39.78;23.23;;;12.60;99.90;;;;;;6187397;23;20008;-80
2021/08/11 05:17:33;;;;;;;39.53;22.35;;;12.60;99.90;;;;;;6161107;23;20016;-80
2021/08/11 05:19:59;;;;;;;36.70;22.83;;;12.60;99.90;;;;;;6185756;23;20066;-80
2021/08/11 05:22:25;;;;;;;34.10;22.35;;;12.60;99.90;;;;;;6187676;23;20016;-81
2021/08/11 05:24:51;;;;;;;32.35;22.45;;;12.60;99.90;;;;;;6213436;23;20012;-79
2021/08/11 05:27:18;;;;;;;40.90;22.38;;;12.70;99.90;;;;;;6216449;23;20138;-80
2021/08/11 05:29:45;;;;;;;37.33;23.20;;;12.70;99.90;;;;;;6215164;23;20012;-80
2021/08/11 05:32:15;;;;;;;39.10;22.65;;;12.70;99.90;;;;;;6217767;23;20091;-81
2021/08/11 05:34:41;;;;;;;38.88;21.88;;;12.70;99.90;;;;;;6192211;23;20095;-80
2021/08/11 05:37:11;;;;;;;42.10;21.55;;;12.70;99.90;;;;;;6166336;23;20016;-80
2021/08/11 05:39:37;;;;;;;34.10;22.20;;;12.80;99.90;;;;;;6167467;23;20012;-80
2021/08/11 05:42:04;;;;;;;35.97;22.83;;;12.80;99.90;;;;;;6216497;23;20015;-80
2021/08/11 05:44:30;;;;;;;34.22;21.33;;;12.90;99.90;;;;;;6214979;23;20087;-80
2021/08/11 05:46:56;;;;;;;36.08;22.08;;;12.80;99.90;;;;;;6190550;23;20027;-81
2021/08/11 05:49:22;;;;;;;42.67;23.27;;;12.90;99.90;;;;;;6164875;23;20012;-80
2021/08/11 05:51:48;;;;;;;38.30;22.90;;;12.90;99.90;;;;;;6189891;23;20095;-80
2021/08/11 05:54:14;;;;;;;34.75;22.20;;;13.00;99.90;;;;;;6189366;23;20019;-81
2021/08/11 05:56:39;;;;;;;34.40;23.15;;;13.00;99.90;;;;;;6191468;23;20015;-81
2021/08/11 05:59:05;;;;;;;30.50;21.10;;;13.00;99.90;;;;;;6166426;23;20020;-80
2021/08/11 06:01:31;;;;;;;39.63;22.33;;;13.00;99.90;;;;;;6165421;23;20042;-81
2021/08/11 06:03:58;;;;;;;33.40;21.95;;;13.10;99.90;;;;;;6189085;23;20387;-81
2021/08/11 06:06:25;;;;;;;35.65;23.05;;;13.10;99.90;;;;;;6211069;23;20020;-80
2021/08/11 06:08:50;;;;;;;34.63;23.25;;;13.20;99.90;;;;;;6209637;23;20345;-80
2021/08/11 06:11:16;;;;;;;41.47;24.00;;;13.30;99.90;;;;;;6189690;23;20016;-80
2021/08/11 06:13:42;;;;;;;41.22;23.02;;;13.30;99.90;;;;;;6163768;23;20012;-80
2021/08/11 06:16:09;;;;;;;37.63;23.13;;;13.40;99.90;;;;;;6189591;23;20008;-79
2021/08/11 06:18:35;;;;;;;39.00;23.42;;;13.50;99.90;;;;;;6186039;23;20099;-80
2021/08/11 06:21:01;;;;;;;36.85;22.88;;;13.50;99.90;;;;;;6212021;23;20012;-79
2021/08/11 06:23:27;;;;;;;39.63;24.90;;;13.60;99.90;;;;;;6214466;23;20340;-81
2021/08/11 06:25:53;;;;;;;38.20;23.40;;;13.70;99.90;;;;;;6217869;23;20008;-80
2021/08/11 06:28:19;;;;;;;35.10;22.52;;;13.90;99.90;;;;;;6215000;23;20008;-80
2021/08/11 06:30:45;;;;;;;40.83;23.08;;;14.00;99.90;;;;;;6193283;23;20640;-80
2021/08/11 06:33:11;;;;;;;33.70;22.67;;;14.10;99.90;;;;;;6166466;23;20012;-81
2021/08/11 06:35:36;;;;;;;32.85;21.38;;;14.20;99.90;;;;;;6179214;23;20011;-80
2021/08/11 06:38:03;;;;;;;32.92;21.77;;;14.30;99.90;;;;;;6196903;23;20012;-81
2021/08/11 06:40:30;;;;;;;31.15;21.50;;;14.50;99.90;;;;;;6212301;23;20016;-80
2021/08/11 06:42:56;;;;;;;29.70;20.50;;;14.60;99.90;;;;;;6163586;23;20348;-81
2021/08/11 06:45:22;;;;;;;29.20;18.58;;;14.70;99.90;;;;;;6186513;23;20446;-80
2021/08/11 06:47:49;;;;;;;25.58;18.30;;;14.80;99.90;;;;;;6183670;23;20103;-81
2021/08/11 06:50:15;;;;;;;23.45;15.50;;;14.90;99.90;;;;;;6185881;23;20475;-81
2021/08/11 06:52:41;;;;;;;22.40;14.82;;;15.10;99.90;;;;;;6213627;23;20407;-80
2021/08/11 06:55:09;;;;;;;22.60;14.70;;;15.20;99.90;;;;;;6162999;23;20012;-80
2021/08/11 06:57:35;;;;;;;26.25;14.48;;;15.30;99.90;;;;;;6217040;23;20032;-80
2021/08/11 07:00:02;;;;;;;21.30;13.73;;;15.40;99.90;;;;;;6187413;23;20023;-81
2021/08/11 07:02:28;;;;;;;17.75;13.68;;;15.50;99.90;;;;;;6238153;23;20028;-81
2021/08/11 07:04:54;;;;;;;20.52;13.40;;;15.50;99.90;;;;;;6213467;23;20020;-80
2021/08/11 07:07:20;;;;;;;24.10;14.30;;;15.50;99.90;;;;;;6188602;23;20062;-81
2021/08/11 07:09:46;;;;;;;24.38;13.73;;;15.60;99.90;;;;;;6167675;23;20488;-81
2021/08/11 07:12:12;;;;;;;25.65;13.93;;;15.60;99.90;;;;;;6187075;23;20047;-80
2021/08/11 07:14:38;;;;;;;23.25;13.85;;;15.70;99.90;;;;;;6187092;23;20020;-81
2021/08/11 07:17:03;;;;;;;23.27;14.27;;;15.80;99.90;;;;;;6188499;23;20043;-81
2021/08/11 07:19:30;;;;;;;21.17;13.73;;;15.90;99.90;;;;;;6214141;23;20012;-81
2021/08/11 07:21:55;;;;;;;18.50;14.18;;;16.00;99.90;;;;;;6241660;23;20019;-82
2021/08/11 07:24:21;;;;;;;19.52;14.20;;;16.10;99.90;;;;;;6198149;23;20012;-81
2021/08/11 07:26:47;;;;;;;19.77;12.95;;;16.20;99.90;;;;;;6177551;23;20064;-81
2021/08/11 07:29:13;;;;;;;19.67;13.00;;;16.30;99.90;;;;;;6238520;23;20038;-79
2021/08/11 07:31:39;;;;;;;17.05;12.52;;;16.40;99.90;;;;;;6163301;23;20004;-81
2021/08/11 07:34:05;;;;;;;18.85;11.88;;;16.50;99.90;;;;;;6213070;23;20433;-80
2021/08/11 07:36:31;;;;;;;18.65;11.68;;;16.60;99.90;;;;;;6212994;23;20012;-80
2021/08/11 07:38:56;;;;;;;18.60;10.38;;;16.80;99.90;;;;;;6161932;23;20038;-81
2021/08/11 07:41:22;;;;;;;17.02;10.93;;;16.90;99.90;;;;;;6210746;23;20396;-80
2021/08/11 07:43:48;;;;;;;15.30;9.50;;;16.90;99.90;;;;;;6160768;23;20012;-81
2021/08/11 07:46:14;;;;;;;16.10;9.90;;;16.90;99.90;;;;;;6207548;23;20016;-80
2021/08/11 07:48:40;;;;;;;17.60;9.00;;;17.00;99.90;;;;;;6212739;23;20392;-80
2021/08/11 07:51:06;;;;;;;14.13;8.45;;;17.00;99.90;;;;;;6186005;23;20012;-81
2021/08/11 07:53:32;;;;;;;13.80;9.82;;;17.10;99.90;;;;;;6187107;23;20023;-81
2021/08/11 07:55:58;;;;;;;13.45;8.73;;;17.10;99.90;;;;;;6188338;23;20012;-81
2021/08/11 07:58:25;;;;;;;14.18;9.07;;;17.20;99.90;;;;;;6212761;23;20012;-81
2021/08/11 08:00:54;;;;;;;12.02;8.40;;;17.30;99.90;;;;;;6190112;23;20008;-82
2021/08/11 08:03:19;;;;;;;13.88;6.93;;;17.40;99.90;;;;;;6190469;23;20012;-80
2021/08/11 08:05:45;;;;;;;15.77;7.65;;;17.50;99.90;;;;;;6186900;23;20026;-79
2021/08/11 08:08:11;;;;;;;11.88;7.32;;;17.50;99.90;;;;;;6186168;23;20035;-81
2021/08/11 08:10:37;;;;;;;14.85;7.32;;;17.60;99.90;;;;;;6188403;23;20019;-80
2021/08/11 08:13:03;;;;;;;15.93;7.68;;;17.60;99.90;;;;;;6188273;23;20008;-80
2021/08/11 08:15:29;;;;;;;10.68;6.97;;;17.60;99.90;;;;;;6185713;23;20467;-80
2021/08/11 08:17:56;;;;;;;16.05;7.53;;;17.70;99.90;;;;;;6164305;23;20008;-81
2021/08/11 08:20:22;;;;;;;14.20;7.30;;;17.70;99.90;;;;;;6163215;23;20039;-80
2021/08/11 08:22:49;;;;;;;11.05;6.55;;;17.70;99.90;;;;;;6187278;23;20016;-81
2021/08/11 08:25:20;;;;;;;14.05;7.10;;;17.80;99.90;;;;;;6163439;23;20012;-82
2021/08/11 08:27:46;;;;;;;11.48;7.45;;;17.90;99.90;;;;;;6223067;23;20019;-82
2021/08/11 08:30:12;;;;;;;12.38;7.40;;;17.90;99.60;;;;;;6242976;23;20083;-82
2021/08/11 08:32:38;;;;;;;12.88;7.30;;;18.00;99.40;;;;;;6189333;23;20044;-82
2021/08/11 08:35:04;;;;;;;13.65;7.50;;;18.10;99.00;;;;;;6186941;23;20012;-81
2021/08/11 08:37:33;;;;;;;10.32;6.68;;;18.10;99.00;;;;;;6187760;23;20036;-81
2021/08/11 08:40:03;;;;;;;12.93;6.85;;;18.20;98.90;;;;;;6223198;23;20034;-81
2021/08/11 08:42:29;;;;;;;9.57;6.63;;;18.30;98.80;;;;;;6240663;23;20038;-82
2021/08/11 08:44:55;;;;;;;15.10;7.07;;;18.30;98.50;;;;;;6231506;23;19996;-82
2021/08/11 08:47:26;;;;;;;12.05;6.80;;;18.40;98.10;;;;;;6181071;22;20023;-83
2021/08/11 08:49:57;;;;;;;12.95;7.00;;;18.40;97.60;;;;;;6209696;23;20421;-82
2021/08/11 08:52:24;;;;;;;13.35;6.97;;;18.50;97.40;;;;;;6201616;23;20040;-82
2021/08/11 08:55:09;;;;;;;9.65;6.32;;;18.60;97.20;;;;;;6220520;23;20012;-82
2021/08/11 08:57:35;;;;;;;14.05;7.05;;;18.60;97.40;;;;;;6253803;23;20012;-82
2021/08/11 09:00:08;;;;;;;11.35;7.57;;;18.60;97.20;;;;;;6227088;23;20016;-82
2021/08/11 09:02:40;;;;;;;9.05;6.95;;;18.60;97.10;;;;;;6202385;23;20036;-81
2021/08/11 09:05:09;;;;;;;14.77;7.28;;;18.60;97.40;;;;;;6220234;23;20008;-82
2021/08/11 09:07:46;;;;;;;11.68;6.90;;;18.60;97.50;;;;;;6224825;23;20020;-82
2021/08/11 09:10:26;;;;;;;11.43;6.88;;;18.60;97.40;;;;;;6173180;23;20012;-82
2021/08/11 09:12:54;;;;;;;10.38;6.60;;;18.70;97.50;;;;;;6197218;23;20020;-81
2021/08/11 09:15:39;;;;;;;10.55;6.78;;;18.70;97.30;;;;;;6195637;23;20020;-81
2021/08/11 09:18:17;;;;;;;12.43;6.78;;;18.70;97.40;;;;;;6227569;23;20019;-83
2021/08/11 09:21:12;;;;;;;10.15;6.85;;;18.70;97.30;;;;;;6226796;23;20507;-82
2021/08/11 09:23:51;;;;;;;14.45;7.32;;;18.70;97.20;;;;;;6191425;23;20016;-82
2021/08/11 09:26:17;;;;;;;11.75;7.00;;;18.80;96.90;;;;;;6115979;23;20079;-82
2021/08/11 09:28:46;;;;;;;11.15;7.22;;;18.80;96.80;;;;;;6188669;23;20021;-82
2021/08/11 09:31:32;;;;;;;13.73;7.63;;;18.80;97.00;;;;;;6163429;23;20027;-82
2021/08/11 09:34:00;;;;;;;12.00;7.10;;;18.90;97.30;;;;;;6185513;23;20340;-81
2021/08/11 09:36:39;;;;;;;12.98;8.00;;;19.00;96.70;;;;;;6186031;23;19996;-82
2021/08/11 09:39:05;;;;;;;11.82;7.15;;;19.00;96.60;;;;;;6184939;23;20326;-81
2021/08/11 09:41:35;;;;;;;11.48;7.03;;;19.00;96.50;;;;;;6139595;23;20096;-81
2021/08/11 09:44:09;;;;;;;14.65;7.82;;;19.10;96.70;;;;;;6163948;23;20017;-82
2021/08/11 09:46:37;;;;;;;11.02;6.85;;;19.10;96.70;;;;;;6184682;23;20030;-83
2021/08/11 09:49:13;;;;;;;14.18;6.38;;;19.10;96.50;;;;;;6185227;23;20379;-80
2021/08/11 09:51:55;;;;;;;9.07;6.32;;;19.20;96.50;;;;;;6183078;23;20471;-82
2021/08/11 09:54:22;;;;;;;11.57;6.68;;;19.30;96.60;;;;;;6189054;23;20017;-81
2021/08/11 09:56:48;;;;;;;14.93;7.22;;;19.40;96.80;;;;;;6138951;23;20080;-80
2021/08/11 09:59:14;;;;;;;11.10;6.68;;;19.40;96.80;;;;;;6216080;23;20012;-81
2021/08/11 10:01:40;;;;;;;12.23;6.07;;;19.50;96.70;;;;;;6187177;23;20016;-81
2021/08/11 10:04:07;;;;;;;11.65;6.78;;;19.50;96.70;;;;;;6190743;23;20023;-81
2021/08/11 10:06:35;;;;;;;12.27;6.40;;;19.50;96.80;;;;;;6171179;23;20433;-81
2021/08/11 10:09:17;;;;;;;10.68;7.03;;;19.50;96.50;;;;;;6169566;23;20016;-81
2021/08/11 10:11:50;;;;;;;12.93;6.80;;;19.50;96.50;;;;;;6202797;23;20068;-86
2021/08/11 10:14:49;;;;;;;9.20;6.35;;;19.40;96.30;;;;;;6154290;23;20040;-88
2021/08/11 10:17:21;;;;;;;;;;;19.50;96.70;;;;;;6180357;23;20384;-87
2021/08/11 10:20:07;;;;;;;12.38;7.07;;;19.50;97.30;;;;;;6095511;23;19960;-87
2021/08/11 10:22:33;;;;;;;12.73;7.22;;;19.60;96.40;;;;;;6068768;23;20398;-91
2021/08/11 10:25:01;;;;;;;11.85;7.15;;;19.70;96.00;;;;;;6095251;23;20052;-91
2021/08/11 10:27:31;;;;;;;11.18;6.65;;;19.80;95.90;;;;;;6074142;23;20203;-86
2021/08/11 10:29:57;;;;;;;9.63;6.68;;;19.80;95.90;;;;;;6094021;23;20043;-87
2021/08/11 10:32:24;;;;;;;9.45;5.88;;;19.90;95.80;;;;;;6049705;23;20014;-87
2021/08/11 10:34:54;;;;;;;11.52;6.07;;;20.00;95.80;;;;;;6146220;23;20053;-82
2021/08/11 10:37:24;;;;;;;8.95;5.90;;;20.10;95.20;;;;;;6153282;23;20028;-83
2021/08/11 10:39:51;;;;;;;9.77;5.57;;;20.20;95.40;;;;;;6099112;23;20017;-84
2021/08/11 10:42:17;;;;;;;9.70;5.78;;;20.30;95.20;;;;;;6123109;23;20018;-83
2021/08/11 10:44:45;;;;;;;7.18;4.47;;;20.30;94.90;;;;;;6127788;23;20024;-85
2021/08/11 10:47:11;;;;;;;8.68;4.75;;;20.50;94.50;;;;;;6081250;23;20028;-86
2021/08/11 10:49:55;;;;;;;10.50;5.78;;;20.50;93.80;;;;;;6106990;23;20017;-85
2021/08/11 10:52:22;;;;;;;7.63;4.72;;;20.60;94.00;;;;;;6245172;23;20107;-86
2021/08/11 10:54:52;;;;;;;8.93;5.22;;;20.70;93.50;;;;;;6195703;23;20020;-83
2021/08/11 10:57:42;;;;;;;11.35;5.72;;;20.70;93.60;;;;;;6218553;23;20372;-84
2021/08/11 11:00:09;;;;;;;11.05;5.47;;;20.80;94.10;;;;;;6217458;23;20020;-85
2021/08/11 11:02:38;;;;;;;9.55;5.25;;;20.80;93.10;;;;;;6217203;23;20015;-85
2021/08/11 11:05:05;;;;;;;7.95;5.70;;;20.90;93.10;;;;;;6213323;23;20456;-85
2021/08/11 11:07:31;;;;;;;9.00;5.28;;;20.90;92.30;;;;;;6212770;23;20008;-84
2021/08/11 11:10:22;;;;;;;8.70;4.88;;;20.90;92.10;;;;;;6192364;23;20362;-84
2021/08/11 11:12:48;;;;;;;9.13;4.97;;;20.80;93.00;;;;;;6218195;23;20012;-84
2021/08/11 11:15:14;;;;;;;6.68;4.28;;;20.90;92.30;;;;;;6219226;23;20009;-83
2021/08/11 11:18:09;;;;;;;9.75;5.28;;;20.90;92.40;;;;;;6191047;23;20099;-83
2021/08/11 11:20:35;;;;;;;7.32;4.45;;;20.90;92.90;;;;;;6216419;23;20012;-82
2021/08/11 11:23:02;;;;;;;10.95;4.95;;;21.00;92.20;;;;;;6191347;23;20046;-84
2021/08/11 11:25:54;;;;;;;8.68;4.93;;;21.00;92.00;;;;;;6199936;23;20016;-83
2021/08/11 11:28:20;;;;;;;9.35;5.30;;;21.00;92.20;;;;;;6191671;23;20035;-85
2021/08/11 11:30:46;;;;;;;10.63;4.88;;;21.00;91.90;;;;;;6188856;23;20016;-85
2021/08/11 11:33:18;;;;;;;6.45;3.58;;;21.00;92.30;;;;;;6140017;23;20045;-84
2021/08/11 11:35:44;;;;;;;8.73;3.90;;;21.10;91.70;;;;;;6214304;23;20012;-83
2021/08/11 11:38:12;;;;;;;7.05;3.83;;;21.10;91.00;;;;;;6192221;23;20020;-85
2021/08/11 11:40:56;;;;;;;6.25;3.88;;;21.20;90.70;;;;;;6191573;23;20198;-84
2021/08/11 11:43:32;;;;;;;5.70;3.70;;;21.30;90.90;;;;;;6247065;23;20019;-84
2021/08/11 11:46:08;;;;;;;6.57;3.60;;;21.40;90.40;;;;;;6163740;23;20035;-87
2021/08/11 11:48:34;;;;;;;6.65;3.55;;;21.50;90.20;;;;;;6225315;23;20008;-84
2021/08/11 11:51:04;;;;;;;6.88;4.00;;;21.50;88.50;;;;;;6168412;23;20030;-85
2021/08/11 11:53:33;;;;;;;8.45;3.90;;;21.50;89.20;;;;;;6214628;23;20257;-85
2021/08/11 11:56:13;;;;;;;9.20;4.32;;;21.60;90.40;;;;;;6216430;23;20039;-84
2021/08/11 11:58:47;;;;;;;7.88;3.75;;;21.60;90.60;;;;;;6222505;23;20015;-83
2021/08/11 12:01:15;;;;;;;7.47;4.50;;;21.60;90.00;;;;;;6236671;22;20124;-81
2021/08/11 12:03:51;;;;;;;7.85;4.20;;;21.60;90.20;;;;;;6216134;22;20019;-82
2021/08/11 12:06:34;;;;;;;8.70;4.72;;;21.60;90.50;;;;;;6225349;23;20082;-85
2021/08/11 12:09:01;;;;;;;7.85;4.15;;;21.70;91.20;;;;;;6215420;23;20039;-86
2021/08/11 12:11:30;;;;;;;7.60;4.30;;;21.70;90.30;;;;;;6171754;23;20008;-84
2021/08/11 12:13:56;;;;;;;6.90;3.85;;;21.80;90.10;;;;;;6212620;23;20083;-84
2021/08/11 12:16:23;;;;;;;6.03;3.85;;;21.70;90.10;;;;;;6214501;23;20408;-85
2021/08/11 12:18:50;;;;;;;8.15;4.18;;;21.60;90.30;;;;;;6189434;23;20023;-85
2021/08/11 12:21:18;;;;;;;6.93;4.13;;;21.70;90.40;;;;;;6190669;23;20008;-86
2021/08/11 12:23:45;;;;;;;9.77;4.82;;;21.70;90.50;;;;;;6212977;23;20012;-85
2021/08/11 12:26:16;;;;;;;7.20;4.45;;;21.70;89.70;;;;;;6217458;23;20012;-83
2021/08/11 12:28:49;;;;;;;7.53;3.75;;;21.80;89.70;;;;;;6217783;23;20524;-83
2021/08/11 12:31:23;;;;;;;8.93;3.83;;;22.00;90.20;;;;;;6216170;23;20008;-83
2021/08/11 12:33:53;;;;;;;6.47;3.72;;;22.00;90.90;;;;;;6218351;23;20091;-82
2021/08/11 12:36:26;;;;;;;7.10;4.00;;;22.10;90.30;;;;;;6187975;23;20004;-84
2021/08/11 12:39:05;;;;;;;8.48;3.90;;;22.10;89.70;;;;;;6210977;23;20032;-83
2021/08/11 12:41:32;;;;;;;6.43;3.55;;;22.00;89.10;;;;;;6239276;23;20506;-84